createdAt,value
2018-11-22T00:00:52.017Z,35.83
2018-11-22T00:03:20.450Z,30.17
2018-11-22T00:05:48.989Z,28.67
2018-11-22T00:08:19.389Z,32.47
2018-11-22T00:10:51.000Z,26.77
2018-11-22T00:13:19.413Z,29.63
2018-11-22T00:15:49.316Z,28.30
2018-11-22T00:18:18.545Z,24.90
2018-11-22T00:20:47.061Z,23.20
2018-11-22T00:23:15.747Z,21.30
2018-11-22T00:25:44.275Z,22.50
2018-11-22T00:28:12.698Z,23.23
2018-11-22T00:30:43.272Z,27.27
2018-11-22T00:33:09.577Z,19.13
2018-11-22T00:35:38.023Z,21.13
2018-11-22T00:38:09.619Z,22.13
2018-11-22T00:40:39.762Z,19.80
2018-11-22T00:43:08.208Z,17.30
2018-11-22T00:45:38.176Z,23.63
2018-11-22T00:48:06.672Z,21.47
2018-11-22T00:50:41.208Z,25.43
2018-11-22T00:53:12.695Z,21.07
2018-11-22T00:55:41.124Z,22.20
2018-11-22T00:58:11.081Z,22.03
2018-11-22T01:00:40.052Z,22.43
2018-11-22T01:03:20.553Z,24.63
2018-11-22T01:05:50.470Z,22.63
2018-11-22T01:08:18.724Z,28.20
2018-11-22T01:10:48.544Z,24.20
2018-11-22T01:13:21.497Z,22.00
2018-11-22T01:15:50.379Z,19.80
2018-11-22T01:18:20.548Z,24.97
2018-11-22T01:20:49.759Z,25.93
2018-11-22T01:23:28.285Z,25.90
2018-11-22T01:26:02.647Z,21.07
2018-11-22T01:28:33.158Z,24.73
2018-11-22T01:31:01.589Z,23.30
2018-11-22T01:33:33.295Z,23.00
2018-11-22T01:36:03.060Z,21.97
2018-11-22T01:38:30.176Z,19.90
2018-11-22T01:40:58.603Z,26.67
2018-11-22T01:43:33.205Z,22.10
2018-11-22T01:46:01.634Z,22.30
2018-11-22T01:48:30.174Z,21.93
2018-11-22T01:51:01.299Z,23.90
2018-11-22T01:53:34.820Z,24.20
2018-11-22T01:56:03.228Z,25.07
2018-11-22T01:58:31.688Z,21.27
2018-11-22T02:01:01.035Z,20.30
2018-11-22T02:03:30.593Z,22.57
2018-11-22T02:06:02.025Z,19.77
2018-11-22T02:08:30.555Z,19.20
2018-11-22T02:11:01.577Z,26.60
2018-11-22T02:13:30.016Z,24.03
2018-11-22T02:15:58.478Z,20.67
2018-11-22T02:18:29.149Z,19.30
2018-11-22T02:21:00.540Z,22.70
2018-11-22T02:23:29.005Z,19.50
2018-11-22T02:25:58.567Z,28.83
2018-11-22T02:28:27.001Z,22.67
2018-11-22T02:30:55.442Z,23.90
2018-11-22T02:33:23.899Z,18.43
2018-11-22T02:35:53.908Z,16.93
2018-11-22T02:38:23.114Z,18.97
2018-11-22T02:40:51.605Z,20.47
2018-11-22T02:43:23.875Z,26.10
2018-11-22T02:45:52.370Z,18.20
2018-11-22T02:48:20.881Z,20.00
2018-11-22T02:50:49.305Z,22.90
2018-11-22T02:53:19.566Z,16.20
2018-11-22T02:55:48.001Z,23.57
2018-11-22T02:58:16.476Z,24.70
2018-11-22T03:00:46.052Z,22.73
2018-11-22T03:03:17.597Z,16.57
2018-11-22T03:05:47.046Z,14.73
2018-11-22T03:08:16.296Z,18.33
2018-11-22T03:10:44.731Z,22.97
2018-11-22T03:13:17.740Z,20.33
2018-11-22T03:15:46.149Z,25.87
2018-11-22T03:18:14.910Z,27.77
2018-11-22T03:20:43.428Z,21.00
2018-11-22T03:23:14.449Z,18.50
2018-11-22T03:25:44.662Z,24.77
2018-11-22T03:28:13.117Z,19.60
2018-11-22T03:30:41.884Z,18.50
2018-11-22T03:33:10.336Z,18.63
2018-11-22T03:35:38.827Z,21.17
2018-11-22T03:38:07.357Z,19.03
2018-11-22T03:40:35.766Z,16.70
2018-11-22T03:43:04.219Z,26.83
2018-11-22T03:45:33.064Z,24.87
2018-11-22T03:48:08.853Z,21.47
2018-11-22T03:50:37.316Z,22.63
2018-11-22T03:53:06.073Z,18.70
2018-11-22T03:55:34.500Z,18.77
2018-11-22T03:58:05.590Z,20.30
2018-11-22T04:00:34.036Z,25.33
2018-11-22T04:03:02.915Z,23.53
2018-11-22T04:05:31.360Z,19.33
2018-11-22T04:07:59.786Z,24.27
2018-11-22T04:10:29.633Z,18.90
2018-11-22T04:13:02.557Z,24.03
2018-11-22T04:15:32.009Z,17.40
2018-11-22T04:18:01.414Z,18.87
2018-11-22T04:20:32.057Z,18.50
2018-11-22T04:23:00.755Z,24.40
2018-11-22T04:25:29.230Z,20.93
2018-11-22T04:27:57.691Z,16.80
2018-11-22T04:30:29.332Z,21.10
2018-11-22T04:32:57.775Z,20.40
2018-11-22T04:35:30.766Z,16.60
2018-11-22T04:37:59.281Z,21.20
2018-11-22T04:40:30.562Z,19.63
2018-11-22T04:42:57.909Z,18.30
2018-11-22T04:45:26.457Z,19.03
2018-11-22T04:47:56.392Z,23.00
2018-11-22T04:50:27.935Z,18.73
2018-11-22T04:52:55.424Z,20.80
2018-11-22T04:55:24.171Z,21.77
2018-11-22T04:57:52.725Z,21.90
2018-11-22T05:00:24.016Z,18.53
2018-11-22T05:02:52.878Z,23.90
2018-11-22T05:05:25.802Z,23.50
2018-11-22T05:07:57.197Z,18.07
2018-11-22T05:10:29.040Z,20.60
2018-11-22T05:12:55.953Z,23.03
2018-11-22T05:15:26.945Z,20.50
2018-11-22T05:17:55.408Z,18.53
2018-11-22T05:20:24.370Z,16.33
2018-11-22T05:22:56.705Z,18.17
2018-11-22T05:25:26.939Z,19.20
2018-11-22T05:27:55.384Z,20.97
2018-11-22T05:30:25.560Z,18.90
2018-11-22T05:32:54.261Z,20.53
2018-11-22T05:35:24.763Z,19.53
2018-11-22T05:37:53.332Z,20.47
2018-11-22T05:40:23.200Z,24.17
2018-11-22T05:42:51.703Z,19.37
2018-11-22T05:45:24.896Z,17.77
2018-11-22T05:47:55.263Z,18.43
2018-11-22T05:50:25.561Z,21.87
2018-11-22T05:52:55.346Z,22.00
2018-11-22T05:55:27.459Z,21.50
2018-11-22T05:57:58.770Z,23.03
2018-11-22T06:00:31.584Z,19.60
2018-11-22T06:03:01.222Z,18.57
2018-11-22T06:05:32.556Z,18.47
2018-11-22T06:08:01.027Z,21.37
2018-11-22T06:10:34.053Z,21.53
2018-11-22T06:13:21.219Z,21.37
2018-11-22T06:15:49.726Z,21.50
2018-11-22T06:18:19.839Z,18.87
2018-11-22T06:20:48.308Z,19.30
2018-11-22T06:23:18.439Z,16.57
2018-11-22T06:25:46.080Z,19.17
2018-11-22T06:28:14.980Z,21.40
2018-11-22T06:30:45.118Z,15.80
2018-11-22T06:33:13.617Z,22.73
2018-11-22T06:35:43.571Z,21.60
2018-11-22T06:38:12.103Z,18.77
2018-11-22T06:40:41.463Z,21.73
2018-11-22T06:43:16.027Z,19.33
2018-11-22T06:45:45.269Z,28.67
2018-11-22T06:48:14.044Z,24.00
2018-11-22T06:50:42.615Z,20.37
2018-11-22T06:53:10.937Z,18.93
2018-11-22T06:55:39.541Z,18.97
2018-11-22T06:58:08.033Z,19.47
2018-11-22T07:00:40.756Z,19.13
2018-11-22T07:03:11.402Z,18.30
2018-11-22T07:05:41.452Z,19.90
2018-11-22T07:08:08.494Z,15.77
2018-11-22T07:10:36.871Z,17.43
2018-11-22T07:13:09.428Z,21.77
2018-11-22T07:15:38.011Z,14.50
2018-11-22T07:18:06.482Z,20.23
2018-11-22T07:20:37.896Z,18.20
2018-11-22T07:23:06.633Z,18.30
2018-11-22T07:25:37.397Z,21.67
2018-11-22T07:28:08.569Z,23.97
2018-11-22T07:30:42.310Z,17.17
2018-11-22T07:33:07.552Z,22.63
2018-11-22T07:35:39.464Z,19.50
2018-11-22T07:38:09.081Z,24.80
2018-11-22T07:40:40.041Z,19.70
2018-11-22T07:43:11.346Z,19.03
2018-11-22T07:45:44.105Z,18.37
2018-11-22T07:48:15.703Z,17.00
2018-11-22T07:50:46.901Z,22.30
2018-11-22T07:53:13.337Z,16.83
2018-11-22T07:55:41.756Z,23.70
2018-11-22T07:58:15.745Z,20.67
2018-11-22T08:00:44.234Z,21.07
2018-11-22T08:03:16.311Z,16.87
2018-11-22T08:05:47.211Z,22.67
2018-11-22T08:08:15.649Z,26.27
2018-11-22T08:10:44.152Z,25.27
2018-11-22T08:13:20.998Z,17.00
2018-11-22T08:15:51.867Z,20.93
2018-11-22T08:18:32.291Z,23.07
2018-11-22T08:21:04.929Z,21.43
2018-11-22T08:23:31.287Z,20.80
2018-11-22T08:26:03.043Z,21.47
2018-11-22T08:28:32.108Z,16.80
2018-11-22T08:31:08.431Z,29.77
2018-11-22T08:33:37.330Z,26.57
2018-11-22T08:36:08.240Z,17.90
2018-11-22T08:38:37.032Z,20.03
2018-11-22T08:41:07.354Z,21.50
2018-11-22T08:43:35.827Z,20.17
2018-11-22T08:46:07.954Z,20.27
2018-11-22T08:48:41.034Z,19.00
2018-11-22T08:51:11.385Z,22.20
2018-11-22T08:53:45.331Z,18.27
2018-11-22T12:16:53.616Z,22.17
2018-11-22T12:19:23.842Z,24.03
2018-11-22T12:21:52.441Z,24.70
2018-11-22T12:24:22.865Z,28.73
2018-11-22T12:26:52.937Z,23.60
2018-11-22T12:29:22.819Z,22.97
2018-11-22T12:31:53.362Z,24.73
2018-11-22T12:34:25.402Z,21.33
2018-11-22T12:37:01.730Z,23.70
2018-11-22T12:39:30.944Z,27.30
2018-11-22T12:42:00.526Z,24.63
2018-11-22T12:44:30.616Z,21.60
2018-11-22T12:47:01.108Z,24.20
2018-11-22T12:49:31.581Z,26.03
2018-11-22T12:52:02.713Z,26.30
2018-11-22T12:54:33.200Z,24.50
2018-11-22T12:57:03.082Z,21.63
2018-11-22T12:59:33.808Z,26.03
2018-11-22T13:02:05.908Z,24.43
2018-11-22T13:04:35.903Z,25.57
2018-11-22T13:07:07.266Z,24.00
2018-11-22T13:09:38.950Z,20.63
2018-11-22T13:12:08.504Z,29.40
2018-11-22T13:14:37.681Z,28.37
2018-11-22T13:17:08.086Z,24.13
2018-11-22T13:19:36.859Z,26.53
2018-11-22T13:22:07.964Z,32.70
2018-11-22T13:24:39.156Z,29.10
2018-11-22T13:27:08.984Z,25.40
2018-11-22T13:29:38.538Z,24.40
2018-11-22T13:32:08.197Z,24.40
2018-11-22T13:34:38.266Z,27.40
2018-11-22T13:37:08.034Z,27.73
2018-11-22T13:39:37.508Z,27.70
2018-11-22T13:42:07.391Z,25.00
2018-11-22T13:44:37.058Z,26.63
2018-11-22T13:47:07.009Z,26.97
2018-11-22T13:49:36.708Z,22.40
2018-11-22T13:52:12.684Z,24.13
2018-11-22T13:54:42.427Z,33.60
2018-11-22T13:57:12.399Z,26.67
2018-11-22T13:59:48.674Z,27.43
2018-11-22T14:02:19.554Z,28.63
2018-11-22T14:04:50.031Z,22.70
2018-11-22T14:07:20.504Z,25.80
2018-11-22T14:09:50.635Z,27.60
2018-11-22T14:12:22.255Z,38.73
2018-11-22T14:14:51.586Z,31.90
2018-11-22T14:17:25.023Z,26.40
2018-11-22T14:19:55.666Z,28.10
2018-11-22T14:22:24.824Z,26.43
2018-11-22T14:24:55.467Z,34.37
2018-11-22T14:27:25.757Z,33.40
2018-11-22T14:29:55.554Z,29.13
2018-11-22T14:32:25.739Z,25.03
2018-11-22T14:35:00.420Z,27.70
2018-11-22T14:37:24.959Z,26.43
2018-11-22T14:39:53.538Z,27.70
2018-11-22T14:42:24.003Z,28.83
2018-11-22T14:44:53.383Z,30.50
2018-11-22T14:47:22.559Z,25.00
2018-11-22T14:49:52.593Z,32.23
2018-11-22T14:52:23.854Z,27.53
2018-11-22T14:54:54.239Z,26.07
2018-11-22T14:57:23.876Z,30.73
2018-11-22T14:59:52.786Z,28.73
2018-11-22T15:02:23.341Z,26.87
2018-11-22T15:04:53.673Z,32.17
2018-11-22T15:07:28.591Z,27.90
2018-11-22T15:09:53.202Z,29.87
2018-11-22T15:12:24.156Z,29.23
2018-11-22T15:14:54.709Z,34.90
2018-11-22T15:17:24.739Z,28.10
2018-11-22T15:19:54.701Z,27.20
2018-11-22T15:22:23.935Z,33.57
2018-11-22T15:24:54.576Z,36.03
2018-11-22T15:27:24.141Z,35.60
2018-11-22T15:29:53.762Z,34.70
2018-11-22T15:32:23.861Z,36.17
2018-11-22T15:35:08.175Z,36.53
2018-11-22T15:37:38.474Z,29.37
2018-11-22T15:40:10.428Z,33.00
2018-11-22T15:42:40.416Z,32.13
2018-11-22T15:45:11.361Z,27.97
2018-11-22T15:47:40.461Z,32.27
2018-11-22T15:50:12.261Z,32.07
2018-11-22T15:52:42.129Z,29.77
2018-11-22T15:55:20.428Z,31.50
2018-11-22T15:57:46.035Z,29.83
2018-11-22T16:00:19.767Z,41.53
2018-11-22T16:02:49.926Z,33.00
2018-11-22T16:05:20.435Z,28.10
2018-11-22T16:07:50.461Z,26.83
2018-11-22T16:10:26.899Z,33.00
2018-11-22T16:12:53.541Z,34.33
2018-11-22T16:15:32.787Z,30.80
2018-11-22T16:18:02.887Z,30.40
2018-11-22T16:20:32.982Z,30.30
2018-11-22T16:23:02.604Z,29.10
2018-11-22T16:25:31.636Z,37.43
2018-11-22T16:28:00.647Z,27.63
2018-11-22T16:30:31.319Z,28.97
2018-11-22T16:33:02.112Z,28.10
2018-11-22T16:35:33.358Z,32.57
2018-11-22T16:38:01.752Z,36.57
2018-11-22T16:40:31.144Z,34.83
2018-11-22T16:43:02.815Z,30.13
2018-11-22T16:45:34.368Z,30.43
2018-11-22T16:48:05.346Z,32.27
2018-11-22T16:50:35.618Z,31.07
2018-11-22T16:53:04.696Z,28.40
2018-11-22T16:55:33.565Z,21.87
2018-11-22T16:58:03.669Z,30.57
2018-11-22T17:00:35.926Z,30.63
2018-11-22T17:03:07.815Z,31.43
2018-11-22T17:05:37.374Z,33.70
2018-11-22T17:08:07.084Z,30.83
2018-11-22T17:10:37.182Z,24.70
2018-11-22T17:13:09.667Z,27.00
2018-11-22T17:15:40.138Z,33.13
2018-11-22T17:18:10.721Z,34.10
2018-11-22T17:20:40.277Z,34.93
2018-11-22T17:23:10.799Z,36.27
2018-11-22T17:25:40.113Z,36.33
2018-11-22T17:28:10.496Z,33.53
2018-11-22T17:30:41.950Z,42.60
2018-11-22T17:33:10.768Z,39.47
2018-11-22T17:35:40.680Z,39.73
2018-11-22T17:38:10.703Z,47.03
2018-11-22T17:40:41.488Z,45.40
2018-11-22T17:43:11.877Z,55.30
2018-11-22T17:45:43.898Z,51.87
2018-11-22T17:48:13.680Z,46.40
2018-11-22T17:50:43.714Z,51.50
2018-11-22T17:53:15.039Z,53.37
2018-11-22T17:55:46.655Z,47.40
2018-11-22T17:58:16.864Z,44.63
2018-11-22T18:00:49.315Z,42.37
2018-11-22T18:03:19.391Z,42.13
2018-11-22T18:05:50.314Z,40.87
2018-11-22T18:08:19.931Z,34.43
2018-11-22T18:10:49.540Z,36.23
2018-11-22T18:13:19.565Z,34.60
2018-11-22T18:15:54.537Z,41.57
2018-11-22T18:18:23.123Z,39.63
2018-11-22T18:20:51.721Z,42.00
2018-11-22T18:23:20.770Z,41.50
2018-11-22T18:25:50.090Z,40.90
2018-11-22T18:28:19.877Z,45.17
2018-11-22T18:30:50.961Z,41.50
2018-11-22T18:33:20.014Z,44.23
2018-11-22T18:37:18.623Z,43.80
2018-11-22T18:39:47.761Z,47.90
2018-11-22T18:42:17.522Z,42.50
2018-11-22T18:44:47.857Z,49.57
2018-11-22T18:47:19.953Z,47.93
2018-11-22T18:49:48.546Z,40.80
2018-11-22T18:52:17.417Z,42.07
2018-11-22T18:54:48.059Z,46.23
2018-11-22T18:57:17.088Z,43.47
2018-11-22T18:59:45.623Z,54.43
2018-11-22T19:02:16.244Z,48.77
2018-11-22T19:04:45.765Z,48.10
2018-11-22T19:07:14.810Z,45.40
2018-11-22T19:09:43.966Z,47.87
2018-11-22T19:12:12.524Z,62.60
2018-11-22T19:14:41.960Z,54.30
2018-11-22T19:17:12.877Z,52.37
2018-11-22T19:19:43.341Z,66.97
2018-11-22T19:22:12.365Z,57.53
2018-11-22T19:24:41.641Z,42.67
2018-11-22T19:27:10.482Z,53.30
2018-11-22T19:29:42.141Z,47.30
2018-11-22T19:32:11.401Z,53.10
2018-11-22T19:34:41.658Z,36.60
2018-11-22T19:37:11.057Z,43.13
2018-11-22T19:39:40.649Z,44.90
2018-11-22T19:42:10.150Z,45.73
2018-11-22T19:44:40.725Z,39.80
2018-11-22T19:47:11.300Z,44.77
2018-11-22T19:49:47.760Z,45.60
2018-11-22T19:52:22.941Z,36.13
2018-11-22T19:54:52.997Z,38.17
2018-11-22T19:57:22.729Z,40.23
2018-11-22T19:59:52.440Z,42.73
2018-11-22T20:02:24.190Z,41.90
2018-11-22T20:04:53.813Z,42.73
2018-11-22T20:07:22.445Z,41.37
2018-11-22T20:09:53.317Z,38.97
2018-11-22T20:12:22.869Z,37.83
2018-11-22T20:14:52.308Z,47.90
2018-11-22T20:17:22.663Z,37.63
2018-11-22T20:19:52.046Z,41.63
2018-11-22T20:22:20.886Z,49.17
2018-11-22T20:24:50.741Z,42.40
2018-11-22T20:27:20.409Z,34.57
2018-11-22T20:29:51.313Z,46.03
2018-11-22T20:32:20.638Z,39.10
2018-11-22T20:34:49.501Z,36.90
2018-11-22T20:37:19.929Z,35.33
2018-11-22T20:39:50.303Z,41.03
2018-11-22T20:42:19.785Z,34.27
2018-11-22T20:44:48.413Z,33.63
2018-11-22T20:47:19.770Z,66.10
2018-11-22T20:49:54.273Z,54.73
2018-11-22T20:52:25.518Z,55.13
2018-11-22T20:54:54.290Z,65.70
2018-11-22T20:57:24.571Z,71.33
2018-11-22T20:59:54.347Z,73.23
2018-11-22T21:02:26.674Z,47.73
2018-11-22T21:04:56.238Z,42.23
2018-11-22T21:07:25.799Z,46.43
2018-11-22T21:09:54.981Z,43.33
2018-11-22T21:12:25.881Z,43.07
2018-11-22T21:14:55.061Z,39.80
2018-11-22T21:17:24.217Z,49.93
2018-11-22T21:19:53.776Z,40.80
2018-11-22T21:22:23.668Z,46.40
2018-11-22T21:24:52.789Z,42.97
2018-11-22T21:27:24.309Z,37.40
2018-11-22T21:29:55.041Z,47.00
2018-11-22T21:32:25.502Z,39.73
2018-11-22T21:34:55.412Z,42.10
2018-11-22T21:37:25.100Z,42.17
2018-11-22T21:39:54.015Z,35.17
2018-11-22T21:42:23.114Z,27.67
2018-11-22T21:44:52.917Z,36.63
2018-11-22T21:47:23.648Z,31.57
2018-11-22T21:49:53.973Z,33.93
2018-11-22T21:52:24.472Z,36.30
2018-11-22T21:54:54.014Z,37.70
2018-11-22T21:57:26.749Z,36.07
2018-11-22T21:59:58.443Z,33.67
2018-11-22T22:02:27.004Z,39.13
2018-11-22T22:04:57.538Z,36.60
2018-11-22T22:07:28.414Z,40.57
2018-11-22T22:09:58.749Z,44.67
2018-11-22T22:12:27.308Z,49.43
2018-11-22T22:14:55.904Z,47.67
2018-11-22T22:17:25.067Z,61.03
2018-11-22T22:19:56.191Z,49.47
2018-11-22T22:22:28.208Z,42.40
2018-11-22T22:24:59.626Z,44.80
2018-11-22T22:27:28.925Z,38.77
2018-11-22T22:29:57.736Z,43.50
2018-11-22T22:32:26.588Z,40.10
2018-11-22T22:34:55.129Z,34.37
2018-11-22T22:37:24.700Z,35.53
2018-11-22T22:40:03.548Z,39.33
2018-11-22T22:42:28.410Z,36.80
2018-11-22T22:44:58.749Z,35.47
2018-11-22T22:47:27.341Z,32.70
2018-11-22T22:49:57.009Z,30.73
2018-11-22T22:52:26.924Z,36.23
2018-11-22T22:54:56.944Z,36.90
2018-11-22T22:57:28.112Z,33.43
2018-11-22T22:59:58.015Z,31.50
2018-11-22T23:02:27.335Z,35.17
2018-11-22T23:04:56.400Z,40.00
2018-11-22T23:07:26.729Z,30.60
2018-11-22T23:09:55.264Z,29.77
2018-11-22T23:12:25.045Z,28.13
2018-11-22T23:14:56.574Z,32.47
2018-11-22T23:17:25.179Z,33.23
2018-11-22T23:20:00.976Z,33.03
2018-11-22T23:22:31.138Z,35.73
2018-11-22T23:25:01.717Z,29.80
2018-11-22T23:27:32.405Z,31.77
2018-11-22T23:30:03.232Z,30.93
2018-11-22T23:32:34.277Z,32.47
2018-11-22T23:35:04.136Z,29.93
2018-11-22T23:37:32.931Z,31.53
2018-11-22T23:40:01.717Z,34.13
2018-11-22T23:42:30.491Z,26.10
2018-11-22T23:45:00.081Z,30.70
2018-11-22T23:47:29.184Z,31.63
2018-11-22T23:49:58.321Z,34.67
2018-11-22T23:52:28.870Z,30.43
2018-11-22T23:54:57.797Z,42.40
2018-11-22T23:57:27.460Z,30.90
2018-11-22T23:59:57.503Z,35.77
